Time;durP1;ratioP1;P1;durP2;ratioP2;P2;SDS_P1;SDS_P2;PMS_P1;PMS_P2;Temp;Humidity;BMP_temperature;BMP_pressure;BME280_temperature;BME280_humidity;BME280_pressure;Samples;Min_cycle;Max_cycle;Signal;HPM_P1;HPM_P2
2022/06/19 00:02:25;;;;;;;14.87;14.03;;;24.90;4.90;;;;;;4972008;28;20939;-69
2022/06/19 00:04:52;;;;;;;14.30;13.50;;;24.90;4.90;;;;;;4990028;28;20471;-70
2022/06/19 00:07:19;;;;;;;14.27;13.20;;;24.80;4.70;;;;;;4990359;28;20836;-70
2022/06/19 00:09:44;;;;;;;14.13;13.27;;;24.80;5.20;;;;;;4991523;28;20408;-70
2022/06/19 00:12:10;;;;;;;14.80;13.90;;;24.70;5.50;;;;;;4992176;28;20419;-69
2022/06/19 00:14:36;;;;;;;14.30;13.40;;;24.60;5.40;;;;;;4989835;28;20200;-69
2022/06/19 00:17:04;;;;;;;13.60;13.00;;;24.60;5.90;;;;;;4988641;28;20416;-68
2022/06/19 00:19:30;;;;;;;15.37;14.47;;;24.60;5.10;;;;;;4989689;28;20432;-69
2022/06/19 00:21:56;;;;;;;14.97;14.17;;;24.60;3.90;;;;;;4987478;28;21071;-69
2022/06/19 00:24:21;;;;;;;14.80;14.10;;;24.70;3.30;;;;;;4970202;28;20251;-69
2022/06/19 00:26:47;;;;;;;15.67;14.50;;;24.70;3.30;;;;;;4970382;28;20243;-69
2022/06/19 00:29:12;;;;;;;15.70;14.73;;;24.70;3.20;;;;;;4969955;28;20244;-70
2022/06/19 00:31:38;;;;;;;16.20;14.90;;;24.70;2.90;;;;;;4970198;28;20177;-69
2022/06/19 00:34:04;;;;;;;15.23;14.43;;;24.70;2.90;;;;;;4969152;28;20272;-71
2022/06/19 00:36:30;;;;;;;13.93;13.23;;;24.80;2.90;;;;;;4970284;28;20190;-70
2022/06/19 00:38:57;;;;;;;14.87;13.80;;;24.80;3.10;;;;;;4969787;28;20460;-69
2022/06/19 00:41:24;;;;;;;15.00;14.20;;;24.80;3.50;;;;;;4970103;28;20824;-70
2022/06/19 00:44:05;;;;;;;15.60;14.43;;;24.70;3.00;;;;;;4987014;28;20472;-70
2022/06/19 00:46:50;;;;;;;14.70;13.90;;;24.70;3.90;;;;;;4990235;28;20431;-70
2022/06/19 00:49:30;;;;;;;16.03;14.80;;;24.70;3.40;;;;;;4988019;28;20451;-70
2022/06/19 00:52:13;;;;;;;16.70;15.10;;;24.70;3.20;;;;;;4987685;28;20425;-70
2022/06/19 00:54:46;;;;;;;17.60;16.20;;;24.70;3.10;;;;;;4973753;28;20515;-71
2022/06/19 00:57:14;;;;;;;14.97;14.17;;;24.70;3.10;;;;;;4973677;28;20580;-70
2022/06/19 00:59:43;;;;;;;27.20;14.70;;;24.60;3.20;;;;;;4973355;28;21030;-70
2022/06/19 01:02:11;;;;;;;15.03;14.23;;;24.60;3.50;;;;;;4973749;28;20482;-70
2022/06/19 01:04:56;;;;;;;15.20;14.30;;;24.50;3.90;;;;;;4973770;28;20487;-69
2022/06/19 01:07:22;;;;;;;15.20;14.30;;;24.40;4.20;;;;;;4973117;28;20831;-71
2022/06/19 01:09:50;;;;;;;14.43;13.60;;;24.30;4.90;;;;;;4972667;28;20431;-70
2022/06/19 01:12:17;;;;;;;15.00;14.30;;;24.20;4.90;;;;;;4983335;28;20464;-71
2022/06/19 01:14:44;;;;;;;15.30;14.27;;;24.20;5.00;;;;;;4993220;28;20460;-70
2022/06/19 01:17:12;;;;;;;14.80;13.90;;;24.10;5.20;;;;;;4991798;28;20432;-70
2022/06/19 01:19:41;;;;;;;15.57;14.63;;;24.10;5.10;;;;;;4992121;28;20860;-70
2022/06/19 01:22:31;;;;;;;15.77;14.27;;;24.00;4.90;;;;;;4984875;28;20440;-70
2022/06/19 01:25:08;;;;;;;14.50;13.53;;;24.00;4.90;;;;;;4972884;28;21200;-71
2022/06/19 01:30:25;;;;;;;14.53;13.70;;;24.00;5.50;;;;;;4973047;28;20408;-70
2022/06/19 01:32:51;;;;;;;16.03;14.73;;;24.00;5.00;;;;;;4985281;28;20439;-70
2022/06/19 01:35:20;;;;;;;15.93;14.60;;;24.00;4.70;;;;;;4992010;28;20773;-70
2022/06/19 01:37:48;;;;;;;15.37;14.60;;;24.10;4.80;;;;;;4990339;28;20517;-70
2022/06/19 01:40:18;;;;;;;14.50;13.70;;;24.10;4.70;;;;;;4991942;28;20447;-71
2022/06/19 01:42:44;;;;;;;15.50;14.10;;;24.10;4.70;;;;;;4975171;28;20474;-70
2022/06/19 01:45:11;;;;;;;15.70;14.50;;;24.10;4.70;;;;;;4972557;28;20866;-70
2022/06/19 01:47:37;;;;;;;15.83;14.63;;;24.10;4.90;;;;;;4971211;28;20205;-70
2022/06/19 01:50:06;;;;;;;15.13;13.90;;;24.10;5.10;;;;;;4972259;28;20409;-70
2022/06/19 01:52:33;;;;;;;14.50;13.80;;;24.00;5.20;;;;;;4987141;28;20539;-69
2022/06/19 01:55:07;;;;;;;14.83;14.03;;;23.90;5.40;;;;;;4991732;28;20441;-71
2022/06/19 01:57:35;;;;;;;14.27;13.47;;;23.80;5.50;;;;;;4973989;28;20452;-69
2022/06/19 02:00:04;;;;;;;14.10;13.37;;;23.70;5.70;;;;;;4972049;28;20421;-70
2022/06/19 02:02:32;;;;;;;15.20;13.60;;;23.50;6.00;;;;;;4972677;28;20420;-70
2022/06/19 02:04:58;;;;;;;14.70;13.97;;;23.40;6.30;;;;;;4972348;28;20547;-68
2022/06/19 02:07:26;;;;;;;15.97;14.50;;;23.40;6.30;;;;;;4988390;28;20542;-68
2022/06/19 02:09:52;;;;;;;14.47;13.70;;;23.30;6.30;;;;;;4992143;28;20256;-69
2022/06/19 02:12:19;;;;;;;32.87;14.00;;;23.30;6.30;;;;;;4991581;28;20506;-69
2022/06/19 02:14:44;;;;;;;14.30;13.60;;;23.30;6.50;;;;;;4991676;28;20602;-68
2022/06/19 02:17:35;;;;;;;14.77;13.87;;;23.30;6.40;;;;;;4978410;28;20468;-70
2022/06/19 02:20:01;;;;;;;13.93;13.00;;;23.20;6.80;;;;;;4975323;28;20189;-67
2022/06/19 02:22:26;;;;;;;16.03;14.40;;;23.20;7.10;;;;;;4972624;28;20440;-70
2022/06/19 02:24:52;;;;;;;14.97;13.47;;;23.10;7.30;;;;;;4972053;28;20298;-69
2022/06/19 02:27:18;;;;;;;13.63;12.87;;;23.10;7.50;;;;;;4973114;28;20211;-70
2022/06/19 02:29:44;;;;;;;14.83;13.73;;;22.90;7.70;;;;;;4989864;28;20185;-69
2022/06/19 02:32:21;;;;;;;13.60;12.60;;;22.90;7.90;;;;;;4991975;28;20786;-69
2022/06/19 02:34:48;;;;;;;15.30;14.40;;;22.80;8.00;;;;;;4991091;28;20208;-68
2022/06/19 02:37:17;;;;;;;14.03;13.23;;;22.70;8.30;;;;;;4991101;28;20440;-68
2022/06/19 02:40:07;;;;;;;13.57;12.53;;;22.70;9.20;;;;;;4971810;28;20490;-69
2022/06/19 02:42:42;;;;;;;13.97;12.97;;;22.60;8.50;;;;;;4972124;28;20420;-69
2022/06/19 02:45:16;;;;;;;14.40;13.20;;;22.60;9.10;;;;;;4971449;28;20456;-68
2022/06/19 02:47:42;;;;;;;14.67;13.60;;;22.60;8.90;;;;;;4976818;28;20954;-70
2022/06/19 02:50:11;;;;;;;14.40;13.60;;;22.50;9.30;;;;;;4995611;28;20500;-69
2022/06/19 02:52:37;;;;;;;14.07;13.37;;;22.50;9.30;;;;;;5001374;28;20424;-70
2022/06/19 02:55:03;;;;;;;14.93;13.73;;;22.40;9.20;;;;;;4994945;28;20428;-69
2022/06/19 02:57:29;;;;;;;16.70;13.90;;;22.30;9.20;;;;;;4998969;28;20193;-70
2022/06/19 02:59:54;;;;;;;13.67;12.60;;;22.30;9.40;;;;;;4993366;28;20435;-69
2022/06/19 03:02:20;;;;;;;12.77;12.17;;;22.20;9.60;;;;;;4993725;28;20195;-68
2022/06/19 03:04:56;;;;;;;13.90;12.93;;;22.20;9.90;;;;;;4991555;28;20205;-70
2022/06/19 03:07:23;;;;;;;13.40;12.60;;;22.10;10.20;;;;;;4975025;28;20445;-68
2022/06/19 03:09:49;;;;;;;18.13;12.93;;;22.10;10.60;;;;;;4972687;28;20411;-69
2022/06/19 03:12:15;;;;;;;13.37;12.33;;;22.00;10.70;;;;;;4973155;28;20491;-70
2022/06/19 03:14:41;;;;;;;13.67;12.60;;;22.00;11.20;;;;;;4971537;28;20690;-70
2022/06/19 03:17:07;;;;;;;13.67;12.80;;;21.90;10.70;;;;;;4986092;28;20438;-70
2022/06/19 03:19:33;;;;;;;14.40;13.20;;;21.90;10.90;;;;;;4991091;28;20420;-70
2022/06/19 03:21:59;;;;;;;14.07;13.10;;;21.80;10.90;;;;;;4991299;28;20222;-70
2022/06/19 03:24:26;;;;;;;13.60;12.70;;;21.80;11.00;;;;;;4990541;28;20859;-70
2022/06/19 03:26:52;;;;;;;13.67;12.20;;;21.70;11.20;;;;;;4976830;28;20181;-70
2022/06/19 03:29:18;;;;;;;15.13;13.97;;;21.70;11.40;;;;;;4970865;28;20451;-70
2022/06/19 03:31:43;;;;;;;13.50;12.50;;;21.60;11.70;;;;;;4971075;28;20256;-70
2022/06/19 03:34:09;;;;;;;14.17;13.13;;;21.60;11.70;;;;;;4972453;28;20182;-68
2022/06/19 03:36:34;;;;;;;13.57;12.67;;;21.60;11.80;;;;;;4980999;28;20216;-69
2022/06/19 03:39:00;;;;;;;13.40;12.40;;;21.60;11.70;;;;;;4977331;28;20546;-68
2022/06/19 03:41:25;;;;;;;14.43;13.00;;;21.70;11.70;;;;;;4987002;28;20176;-68
2022/06/19 03:43:51;;;;;;;14.03;13.23;;;21.70;11.50;;;;;;4989520;28;20683;-68
2022/06/19 03:46:18;;;;;;;15.27;13.37;;;21.70;11.40;;;;;;4983055;28;20193;-67
2022/06/19 03:48:47;;;;;;;13.73;12.90;;;21.70;11.70;;;;;;4969112;28;20660;-68
2022/06/19 03:51:14;;;;;;;13.47;12.63;;;21.80;11.80;;;;;;4970721;28;20494;-67
2022/06/19 03:53:40;;;;;;;23.53;13.50;;;21.80;11.70;;;;;;4970564;28;20923;-68
2022/06/19 03:56:06;;;;;;;12.50;11.70;;;21.90;11.70;;;;;;4975402;28;20485;-68
2022/06/19 03:58:47;;;;;;;18.83;12.60;;;22.00;11.60;;;;;;4989303;28;20224;-68
2022/06/19 04:01:17;;;;;;;15.33;13.67;;;22.10;11.30;;;;;;4990374;28;20422;-66
2022/06/19 04:03:45;;;;;;;13.80;12.90;;;22.10;11.20;;;;;;4989794;28;20455;-67
2022/06/19 04:06:12;;;;;;;13.20;12.10;;;22.20;11.50;;;;;;4986203;28;20940;-69
2022/06/19 04:08:39;;;;;;;13.07;12.10;;;22.20;11.60;;;;;;4970118;28;20445;-69
2022/06/19 04:11:08;;;;;;;14.60;13.23;;;22.20;11.90;;;;;;4970444;28;20939;-69
2022/06/19 04:13:34;;;;;;;13.73;12.60;;;22.20;12.00;;;;;;4969188;28;20421;-70
2022/06/19 04:16:02;;;;;;;13.80;12.83;;;22.30;11.90;;;;;;4974445;28;20428;-70
2022/06/19 04:18:29;;;;;;;12.60;11.90;;;22.40;11.90;;;;;;4989426;28;20531;-69
2022/06/19 04:20:56;;;;;;;12.77;12.00;;;22.50;11.70;;;;;;4989386;28;20428;-69
2022/06/19 04:23:22;;;;;;;14.47;13.40;;;22.60;11.60;;;;;;4989634;28;20721;-70
2022/06/19 04:25:48;;;;;;;13.23;12.23;;;22.70;11.30;;;;;;4987302;28;20729;-69
2022/06/19 04:28:14;;;;;;;13.47;12.57;;;22.80;11.10;;;;;;4969343;28;20462;-70
2022/06/19 04:30:46;;;;;;;12.87;12.20;;;22.90;11.10;;;;;;4970150;28;20417;-70
2022/06/19 04:33:16;;;;;;;19.73;12.53;;;23.10;10.90;;;;;;4968879;28;20500;-69
2022/06/19 04:35:42;;;;;;;14.33;13.53;;;23.30;10.70;;;;;;4977277;28;20992;-68
2022/06/19 04:38:08;;;;;;;16.97;14.37;;;23.50;9.90;;;;;;4969738;28;20543;-69
2022/06/19 04:40:35;;;;;;;14.57;13.50;;;23.60;10.10;;;;;;4970014;28;20412;-69
2022/06/19 04:43:00;;;;;;;15.53;14.37;;;23.70;10.10;;;;;;4969987;28;20170;-70
2022/06/19 04:45:26;;;;;;;15.13;13.97;;;23.80;10.10;;;;;;4974511;28;20847;-68
2022/06/19 04:47:52;;;;;;;14.10;13.20;;;23.90;10.30;;;;;;4989265;28;20197;-68
2022/06/19 04:50:17;;;;;;;15.00;13.90;;;23.90;10.30;;;;;;4988308;28;20176;-69
2022/06/19 04:52:43;;;;;;;15.33;14.17;;;24.10;10.30;;;;;;4989427;28;20260;-70
2022/06/19 04:55:11;;;;;;;14.67;13.43;;;24.70;10.00;;;;;;4985450;28;20197;-71
2022/06/19 04:57:36;;;;;;;14.47;13.30;;;25.50;8.90;;;;;;4969742;28;20207;-71
2022/06/19 05:00:04;;;;;;;15.80;14.83;;;26.30;7.50;;;;;;4969554;28;20424;-69
2022/06/19 05:02:29;;;;;;;17.23;15.73;;;27.20;6.80;;;;;;4969637;28;20193;-70
2022/06/19 05:04:55;;;;;;;16.87;15.97;;;28.00;5.40;;;;;;4969629;28;20472;-70
2022/06/19 05:07:21;;;;;;;16.87;15.53;;;28.80;3.70;;;;;;4989019;28;20536;-70
2022/06/19 05:09:47;;;;;;;17.53;16.37;;;29.60;3.20;;;;;;4988889;28;20503;-69
2022/06/19 05:12:12;;;;;;;16.20;15.50;;;30.30;2.00;;;;;;4989482;28;20720;-70
2022/06/19 05:14:38;;;;;;;17.17;16.10;;;31.00;1.30;;;;;;4984849;28;20180;-71
2022/06/19 05:17:04;;;;;;;17.63;16.00;;;31.30;1.00;;;;;;4969397;28;20204;-70
2022/06/19 05:19:29;;;;;;;16.43;15.63;;;31.50;1.00;;;;;;4969389;28;20420;-71
2022/06/19 05:21:55;;;;;;;16.27;15.47;;;31.40;1.00;;;;;;4969606;28;20227;-70
2022/06/19 05:24:20;;;;;;;17.10;15.37;;;32.00;1.00;;;;;;4969420;28;20204;-71
2022/06/19 05:26:46;;;;;;;16.20;15.40;;;32.60;1.00;;;;;;4988955;28;20202;-70
2022/06/19 05:29:12;;;;;;;16.67;15.70;;;33.10;1.00;;;;;;4988258;28;20193;-70
2022/06/19 05:31:37;;;;;;;17.17;15.97;;;33.60;1.00;;;;;;4988935;28;20173;-70
2022/06/19 05:34:03;;;;;;;17.20;16.23;;;34.20;1.00;;;;;;4988897;28;20173;-71
2022/06/19 05:36:29;;;;;;;16.93;16.00;;;34.60;1.00;;;;;;4971874;28;20197;-71
2022/06/19 05:38:55;;;;;;;17.63;16.63;;;35.20;1.00;;;;;;4969377;28;20263;-74
2022/06/19 05:41:21;;;;;;;17.33;16.13;;;35.80;1.00;;;;;;4971532;28;20475;-72
2022/06/19 05:43:50;;;;;;;16.87;15.97;;;36.40;1.00;;;;;;4972483;28;20496;-72
2022/06/19 05:46:17;;;;;;;17.80;17.00;;;36.70;1.00;;;;;;4991976;28;20181;-71
2022/06/19 05:48:43;;;;;;;18.57;17.40;;;36.80;1.00;;;;;;4991745;28;20438;-70
2022/06/19 05:51:12;;;;;;;16.73;15.90;;;36.80;1.00;;;;;;4991912;28;20412;-71
2022/06/19 05:53:41;;;;;;;17.43;16.30;;;36.80;1.00;;;;;;4991888;28;20426;-70
2022/06/19 05:56:07;;;;;;;17.00;16.20;;;36.90;1.00;;;;;;4972988;28;20439;-71
2022/06/19 05:58:34;;;;;;;16.47;15.47;;;37.10;1.00;;;;;;4970689;28;20449;-71
2022/06/19 06:01:01;;;;;;;17.63;16.57;;;37.30;1.00;;;;;;4972245;28;20464;-71
2022/06/19 06:03:26;;;;;;;18.03;17.23;;;37.70;1.00;;;;;;4972304;28;20570;-71
2022/06/19 06:05:52;;;;;;;18.70;17.60;;;38.30;1.00;;;;;;4988369;28;20431;-70
2022/06/19 06:08:19;;;;;;;17.17;16.37;;;38.40;1.00;;;;;;4991301;28;20211;-71
2022/06/19 06:10:47;;;;;;;19.07;18.17;;;38.50;1.00;;;;;;4991514;28;20419;-71
2022/06/19 06:13:13;;;;;;;19.63;18.47;;;38.80;1.00;;;;;;4991592;28;20412;-72
2022/06/19 06:15:38;;;;;;;18.03;17.03;;;39.30;1.00;;;;;;4976908;28;20482;-71
2022/06/19 06:18:04;;;;;;;17.33;16.43;;;39.20;1.00;;;;;;4971866;28;20835;-71
2022/06/19 06:20:30;;;;;;;16.40;15.70;;;38.80;1.00;;;;;;4972002;28;20181;-71
2022/06/19 06:22:56;;;;;;;18.00;16.80;;;38.80;1.00;;;;;;4972029;28;20173;-71
2022/06/19 06:25:21;;;;;;;17.60;16.50;;;39.00;1.00;;;;;;4972932;28;20986;-70
2022/06/19 06:27:47;;;;;;;18.20;17.30;;;38.50;1.00;;;;;;4971983;28;20684;-71
2022/06/19 06:30:13;;;;;;;17.07;16.27;;;38.90;1.00;;;;;;4971726;28;20170;-70
2022/06/19 06:32:39;;;;;;;18.47;16.73;;;39.10;1.00;;;;;;4972009;28;20235;-72
2022/06/19 06:35:06;;;;;;;17.50;16.70;;;38.90;1.00;;;;;;4980851;28;20309;-70
2022/06/19 06:37:31;;;;;;;17.97;17.07;;;38.80;1.00;;;;;;4989790;28;20456;-72
2022/06/19 06:39:57;;;;;;;17.97;17.00;;;38.90;1.00;;;;;;4991035;28;20418;-70
2022/06/19 06:42:22;;;;;;;17.77;16.70;;;38.00;1.00;;;;;;4976465;28;20264;-71
2022/06/19 06:44:48;;;;;;;17.57;16.43;;;38.10;1.00;;;;;;4971724;28;20217;-69
2022/06/19 06:47:14;;;;;;;16.80;15.70;;;38.30;1.00;;;;;;4971575;28;20181;-69
2022/06/19 06:49:39;;;;;;;18.77;17.37;;;38.70;1.00;;;;;;4971517;28;20213;-69
2022/06/19 06:52:08;;;;;;;16.60;15.90;;;38.70;1.00;;;;;;4983810;28;20195;-68
2022/06/19 06:54:38;;;;;;;18.03;16.63;;;38.70;1.00;;;;;;4989849;28;20195;-69
2022/06/19 06:57:06;;;;;;;17.20;16.10;;;38.50;1.00;;;;;;4991138;28;20919;-68
2022/06/19 06:59:32;;;;;;;17.87;16.67;;;38.30;1.00;;;;;;4990597;28;20430;-68
2022/06/19 07:01:58;;;;;;;17.27;16.47;;;38.10;1.00;;;;;;4978529;28;20437;-68
2022/06/19 07:04:23;;;;;;;16.70;15.60;;;38.20;1.00;;;;;;4971387;28;20499;-68
2022/06/19 07:06:49;;;;;;;17.10;16.10;;;37.70;1.00;;;;;;4971411;28;20495;-68
2022/06/19 07:09:14;;;;;;;16.77;15.83;;;36.90;1.00;;;;;;4971130;28;20675;-68
2022/06/19 07:11:42;;;;;;;16.90;15.80;;;36.90;1.00;;;;;;4979227;28;20280;-69
2022/06/19 07:14:08;;;;;;;17.40;16.40;;;37.10;1.00;;;;;;4990663;28;20666;-67
2022/06/19 07:16:34;;;;;;;17.70;16.40;;;37.30;1.00;;;;;;4991054;28;20878;-67
2022/06/19 07:19:00;;;;;;;18.77;17.00;;;37.10;1.00;;;;;;4990221;28;20476;-66
2022/06/19 07:21:26;;;;;;;16.40;15.60;;;36.90;1.00;;;;;;4986163;28;20635;-68
2022/06/19 07:23:51;;;;;;;16.83;15.83;;;36.80;1.00;;;;;;4970989;28;20226;-68
2022/06/19 07:26:19;;;;;;;16.63;15.77;;;37.20;1.00;;;;;;4971168;28;20197;-68
2022/06/19 07:28:46;;;;;;;17.17;16.10;;;37.80;1.00;;;;;;4970667;28;20711;-68
2022/06/19 07:31:12;;;;;;;17.20;16.37;;;37.90;1.00;;;;;;4970945;28;20477;-68
2022/06/19 07:33:38;;;;;;;18.50;17.37;;;38.70;1.00;;;;;;4989920;28;20522;-68
2022/06/19 07:36:05;;;;;;;16.70;15.70;;;39.50;1.00;;;;;;4987887;28;20439;-69
2022/06/19 07:38:31;;;;;;;18.60;17.50;;;39.90;1.00;;;;;;4971572;28;20244;-68
2022/06/19 07:40:57;;;;;;;17.87;16.83;;;39.80;1.00;;;;;;4989981;28;20431;-69
2022/06/19 07:43:23;;;;;;;17.27;16.20;;;40.00;1.00;;;;;;4979313;28;20184;-68
2022/06/19 07:45:49;;;;;;;18.00;16.17;;;40.40;1.00;;;;;;4989879;28;20171;-68
2022/06/19 07:50:59;;;;;;;17.70;16.33;;;40.60;1.00;;;;;;4989380;28;20430;-68
2022/06/19 07:53:24;;;;;;;16.53;15.63;;;40.80;1.00;;;;;;4990127;28;20416;-67
2022/06/19 07:55:50;;;;;;;18.83;16.97;;;41.00;1.00;;;;;;4990015;28;20644;-68
2022/06/19 07:58:15;;;;;;;15.87;15.00;;;41.00;1.00;;;;;;4989626;28;20620;-68
2022/06/19 08:00:41;;;;;;;17.07;16.17;;;40.80;1.00;;;;;;4988914;28;20177;-67
2022/06/19 08:03:07;;;;;;;17.03;16.17;;;41.10;1.00;;;;;;4989137;28;20184;-69
2022/06/19 08:05:35;;;;;;;18.33;17.10;;;41.30;1.00;;;;;;4988203;28;20208;-68
2022/06/19 08:08:05;;;;;;;16.97;15.87;;;41.30;1.00;;;;;;4989353;28;20287;-68
2022/06/19 08:10:35;;;;;;;17.27;16.07;;;41.00;1.00;;;;;;4987026;28;20822;-68
2022/06/19 08:13:01;;;;;;;18.50;16.97;;;40.80;1.00;;;;;;4970222;28;20421;-68
2022/06/19 08:15:27;;;;;;;18.80;16.43;;;40.20;1.00;;;;;;4970329;28;20500;-69
2022/06/19 08:17:53;;;;;;;17.97;16.70;;;40.00;1.00;;;;;;4969791;28;20204;-69
2022/06/19 08:20:21;;;;;;;17.03;15.93;;;40.60;1.00;;;;;;4976012;28;20832;-68
2022/06/19 08:22:46;;;;;;;17.13;16.23;;;41.00;1.00;;;;;;4985915;28;20200;-68
2022/06/19 08:25:14;;;;;;;16.17;15.47;;;41.10;1.00;;;;;;4985404;28;20885;-69
2022/06/19 08:27:43;;;;;;;16.50;15.70;;;41.60;1.00;;;;;;4985348;28;20724;-68
2022/06/19 08:30:16;;;;;;;16.30;15.50;;;41.70;1.00;;;;;;4985181;28;20420;-69
2022/06/19 08:32:41;;;;;;;17.53;16.63;;;41.20;1.00;;;;;;4976481;28;20432;-69
2022/06/19 08:35:07;;;;;;;16.93;16.00;;;41.10;1.00;;;;;;4965427;28;20444;-69
2022/06/19 08:37:35;;;;;;;18.30;17.30;;;40.90;1.00;;;;;;4964795;28;20303;-69
2022/06/19 08:40:05;;;;;;;19.77;18.67;;;40.00;1.00;;;;;;4968819;28;20197;-69
2022/06/19 08:42:31;;;;;;;19.10;18.00;;;39.60;1.00;;;;;;4985035;28;20432;-68
2022/06/19 08:45:16;;;;;;;17.37;16.47;;;38.70;1.00;;;;;;4984616;28;20954;-68
2022/06/19 08:48:14;;;;;;;19.73;17.70;;;38.80;1.00;;;;;;4984738;28;20210;-68
2022/06/19 08:50:54;;;;;;;18.80;17.83;;;38.30;1.00;;;;;;4984194;28;20451;-67
2022/06/19 08:53:55;;;;;;;19.07;17.87;;;37.60;1.00;;;;;;4984991;28;20437;-69
2022/06/19 08:56:40;;;;;;;17.20;16.20;;;37.70;1.00;;;;;;4924790;29;20534;-68
2022/06/19 08:59:14;;;;;;;18.80;17.53;;;37.70;1.00;;;;;;4979044;28;20453;-68
2022/06/19 09:02:20;;;;;;;17.70;16.67;;;37.60;1.00;;;;;;4983601;28;20518;-69
2022/06/19 09:08:20;;;;;;;16.07;15.37;;;37.20;1.00;;;;;;4965657;28;20436;-68
2022/06/19 09:10:51;;;;;;;20.50;18.57;;;36.60;1.00;;;;;;4981901;28;20980;-68
2022/06/19 09:13:35;;;;;;;16.97;16.27;;;36.10;1.00;;;;;;4977417;28;20440;-68
2022/06/19 09:16:29;;;;;;;18.90;17.67;;;35.80;1.00;;;;;;4969065;28;20879;-68
2022/06/19 09:19:14;;;;;;;17.77;16.97;;;35.50;1.00;;;;;;4982468;28;20867;-68
2022/06/19 09:22:16;;;;;;;19.67;18.33;;;35.30;1.00;;;;;;4981586;28;20457;-68
2022/06/19 09:24:49;;;;;;;18.90;17.70;;;35.10;1.00;;;;;;4968451;28;20459;-68
2022/06/19 09:27:18;;;;;;;18.53;17.30;;;35.00;1.00;;;;;;4980114;28;20419;-68
2022/06/19 09:30:01;;;;;;;19.23;17.73;;;34.80;1.00;;;;;;4988818;28;20428;-69
2022/06/19 09:32:43;;;;;;;22.13;19.90;;;34.60;1.00;;;;;;4983651;28;20428;-67
2022/06/19 09:35:12;;;;;;;17.20;16.30;;;34.40;1.00;;;;;;4988059;28;20420;-68
2022/06/19 09:38:19;;;;;;;20.97;19.60;;;34.30;1.00;;;;;;5017605;22;20506;-71
2022/06/19 09:40:50;;;;;;;20.13;18.60;;;34.10;1.00;;;;;;5065797;28;20427;-74
2022/06/19 09:43:24;;;;;;;18.70;17.80;;;34.10;1.00;;;;;;5090930;28;20407;-70
2022/06/19 09:45:59;;;;;;;23.03;17.40;;;34.20;1.00;;;;;;5090046;28;20426;-70
2022/06/19 09:48:48;;;;;;;19.10;17.70;;;34.20;1.00;;;;;;5075424;28;20547;-71
2022/06/19 09:51:21;;;;;;;20.57;19.10;;;34.20;1.00;;;;;;5081348;28;20426;-70
2022/06/19 09:54:13;;;;;;;19.50;18.20;;;34.10;1.00;;;;;;5075313;28;20423;-72
2022/06/19 09:57:06;;;;;;;19.80;18.50;;;34.10;1.00;;;;;;5075545;28;20934;-70
2022/06/19 09:59:56;;;;;;;17.90;16.90;;;33.90;1.00;;;;;;5079999;28;20469;-73
2022/06/19 10:02:42;;;;;;;19.83;17.90;;;33.90;1.00;;;;;;5089852;28;20431;-71
2022/06/19 10:05:19;;;;;;;21.27;19.53;;;33.80;1.00;;;;;;5093679;28;20906;-68
2022/06/19 10:07:53;;;;;;;20.47;18.53;;;33.70;1.00;;;;;;5086883;28;20503;-69
2022/06/19 10:10:34;;;;;;;19.73;18.73;;;33.70;1.00;;;;;;5073723;28;20875;-68
2022/06/19 10:13:06;;;;;;;19.23;18.10;;;33.80;1.00;;;;;;5073972;28;20415;-68
2022/06/19 10:15:35;;;;;;;20.43;18.43;;;33.80;1.00;;;;;;5074229;28;20408;-68
2022/06/19 10:18:11;;;;;;;18.80;17.70;;;33.90;1.00;;;;;;5073491;28;20440;-68
2022/06/19 10:21:05;;;;;;;21.47;19.73;;;33.90;1.00;;;;;;5082111;28;20477;-68
2022/06/19 10:23:40;;;;;;;20.07;18.80;;;34.00;1.00;;;;;;5093981;28;20441;-67
2022/06/19 10:26:08;;;;;;;21.23;19.70;;;34.00;1.00;;;;;;5093346;28;20905;-68
2022/06/19 10:28:34;;;;;;;18.63;17.20;;;34.20;1.00;;;;;;5093538;28;20428;-67
2022/06/19 10:31:37;;;;;;;20.73;18.97;;;34.20;1.00;;;;;;5092520;28;20435;-69
2022/06/19 10:34:13;;;;;;;20.27;19.10;;;34.00;1.00;;;;;;5093845;28;20172;-69
2022/06/19 10:36:48;;;;;;;19.23;18.07;;;34.10;1.00;;;;;;5093975;28;20811;-68
2022/06/19 10:39:27;;;;;;;20.23;18.83;;;34.20;1.00;;;;;;5093234;28;20446;-67
2022/06/19 10:42:20;;;;;;;20.80;19.23;;;34.40;1.00;;;;;;5093688;28;20465;-68
2022/06/19 10:45:14;;;;;;;21.07;19.70;;;34.40;1.00;;;;;;5083381;28;20500;-68
2022/06/19 10:48:29;;;;;;;22.33;20.70;;;34.50;1.00;;;;;;5073405;28;20418;-68
2022/06/19 10:51:49;;;;;;;21.80;20.30;;;34.60;1.00;;;;;;5011144;28;20457;-69
2022/06/19 10:54:44;;;;;;;21.23;19.73;;;34.60;1.00;;;;;;5010958;28;20445;-70
2022/06/19 10:57:41;;;;;;;20.50;19.27;;;34.60;1.00;;;;;;5071704;28;20413;-68
2022/06/19 11:00:08;;;;;;;21.00;19.63;;;34.60;1.00;;;;;;5072883;28;20416;-68
2022/06/19 11:05:48;;;;;;;20.90;19.50;;;34.60;1.00;;;;;;5072938;28;20459;-67
2022/06/19 11:08:15;;;;;;;21.57;19.97;;;34.70;1.00;;;;;;5076407;28;20586;-68
2022/06/19 11:10:44;;;;;;;19.20;18.00;;;34.80;1.00;;;;;;5072807;28;20511;-68
2022/06/19 11:13:11;;;;;;;21.33;19.93;;;34.80;1.00;;;;;;5071588;28;20565;-68
2022/06/19 11:15:41;;;;;;;20.57;19.10;;;34.90;1.00;;;;;;5071553;28;20447;-67
2022/06/19 11:18:17;;;;;;;19.87;18.50;;;34.90;1.00;;;;;;5072561;28;20432;-67
2022/06/19 11:20:57;;;;;;;19.53;18.20;;;34.90;1.00;;;;;;5072747;28;20404;-68
2022/06/19 11:23:34;;;;;;;20.70;19.27;;;34.90;1.00;;;;;;5071214;28;20431;-68
2022/06/19 11:26:08;;;;;;;19.73;18.37;;;34.90;1.00;;;;;;5072433;28;20424;-68
2022/06/19 11:28:41;;;;;;;19.47;18.33;;;35.00;1.00;;;;;;5072393;28;20428;-68
2022/06/19 11:31:15;;;;;;;19.90;18.80;;;35.00;1.00;;;;;;5072539;28;20404;-67
2022/06/19 11:33:41;;;;;;;20.70;19.20;;;35.10;1.00;;;;;;5072423;28;20823;-67
2022/06/19 11:36:22;;;;;;;21.90;20.60;;;35.10;1.00;;;;;;5072186;28;20416;-68
2022/06/19 11:38:49;;;;;;;20.30;19.10;;;35.10;1.00;;;;;;5070228;28;20517;-68
2022/06/19 11:41:31;;;;;;;19.27;18.17;;;35.20;1.00;;;;;;5071070;28;20412;-67
2022/06/19 11:44:00;;;;;;;21.03;19.73;;;35.20;1.00;;;;;;5075603;28;20816;-67
2022/06/19 11:46:26;;;;;;;21.10;19.50;;;35.20;1.00;;;;;;5092420;28;20498;-67
2022/06/19 11:48:52;;;;;;;19.57;18.50;;;35.30;1.00;;;;;;5091968;28;20953;-69
2022/06/19 11:51:22;;;;;;;20.37;18.87;;;35.20;1.00;;;;;;5091083;28;20411;-69
2022/06/19 11:53:57;;;;;;;19.70;18.60;;;35.20;1.00;;;;;;5092302;28;20518;-68
2022/06/19 11:56:30;;;;;;;19.53;18.43;;;35.20;1.00;;;;;;5092363;28;20414;-68
2022/06/19 11:58:59;;;;;;;21.10;19.63;;;35.20;1.00;;;;;;5092114;28;20434;-68
2022/06/19 12:01:40;;;;;;;20.40;18.90;;;35.20;1.00;;;;;;5092134;28;20418;-69
2022/06/19 12:04:26;;;;;;;20.60;19.07;;;35.20;1.00;;;;;;5090651;28;20527;-72
2022/06/19 12:06:54;;;;;;;23.27;17.97;;;35.20;1.00;;;;;;5092038;28;20556;-65
2022/06/19 12:09:36;;;;;;;18.67;17.27;;;35.10;1.00;;;;;;5073859;28;21035;-66
2022/06/19 12:12:11;;;;;;;19.23;17.10;;;34.60;1.00;;;;;;5072078;28;20780;-65
2022/06/19 12:14:45;;;;;;;18.80;17.53;;;34.20;1.00;;;;;;5072007;28;20430;-65
2022/06/19 12:17:20;;;;;;;17.80;16.70;;;33.90;1.00;;;;;;5072013;28;20407;-65
2022/06/19 12:20:01;;;;;;;17.87;16.40;;;33.70;1.00;;;;;;5071433;28;20435;-65
2022/06/19 12:22:36;;;;;;;18.57;17.23;;;33.50;1.00;;;;;;5071637;28;20415;-66
2022/06/19 12:25:31;;;;;;;17.23;16.23;;;33.40;1.00;;;;;;5069935;28;20454;-66
2022/06/19 12:28:29;;;;;;;17.00;16.00;;;33.40;1.00;;;;;;5070810;28;20788;-66
2022/06/19 12:31:03;;;;;;;18.80;17.60;;;33.20;1.00;;;;;;5070958;28;20408;-66
2022/06/19 12:33:31;;;;;;;17.70;16.53;;;33.20;1.00;;;;;;5071525;28;20404;-66
2022/06/19 12:35:56;;;;;;;17.50;16.50;;;33.10;1.00;;;;;;5071441;28;20409;-66
2022/06/19 12:38:24;;;;;;;19.10;17.10;;;33.00;1.00;;;;;;5071123;28;20505;-66
2022/06/19 12:41:20;;;;;;;17.53;16.40;;;33.00;1.00;;;;;;5071534;28;20165;-67
2022/06/19 12:43:50;;;;;;;16.83;15.97;;;33.00;1.00;;;;;;5067762;28;20461;-68
2022/06/19 12:46:28;;;;;;;18.27;17.17;;;33.00;1.00;;;;;;5091750;28;20797;-66
2022/06/19 12:49:18;;;;;;;17.70;16.50;;;33.10;1.00;;;;;;5093525;28;20426;-66
2022/06/19 12:51:53;;;;;;;18.17;16.77;;;33.00;1.00;;;;;;5095393;28;20410;-66
2022/06/19 12:54:45;;;;;;;16.27;15.33;;;33.10;1.00;;;;;;5109238;28;20908;-67
2022/06/19 12:57:41;;;;;;;17.50;16.27;;;33.00;1.00;;;;;;5111883;28;20418;-66
2022/06/19 13:00:39;;;;;;;17.30;16.00;;;32.80;1.00;;;;;;5087578;28;20438;-67
2022/06/19 13:03:41;;;;;;;17.43;16.43;;;32.80;1.00;;;;;;5048254;28;20497;-65
2022/06/19 13:06:21;;;;;;;17.23;16.13;;;32.90;1.00;;;;;;5078523;28;20475;-66
2022/06/19 13:08:53;;;;;;;17.53;16.37;;;33.00;1.00;;;;;;5076251;28;20974;-65
2022/06/19 13:11:50;;;;;;;18.53;16.70;;;33.00;1.00;;;;;;5104165;28;20418;-66